Time;durP1;ratioP1;P1;durP2;ratioP2;P2;SDS_P1;SDS_P2;PMS_P1;PMS_P2;Temp;Humidity;BMP_temperature;BMP_pressure;BME280_temperature;BME280_humidity;BME280_pressure;Samples;Min_cycle;Max_cycle;Signal;HPM_P1;HPM_P2
2022/10/08 00:01:06;;;;;;;8.73;4.72;;;;;;;12.77;54.65;100120.56;5013676;28;20022;-70
2022/10/08 00:03:34;;;;;;;15.48;5.15;;;;;;;12.48;55.35;100117.31;5012224;28;20036;-70
2022/10/08 00:06:11;;;;;;;9.00;6.07;;;;;;;12.33;55.99;100115.03;5013206;28;20025;-70
2022/10/08 00:08:38;;;;;;;8.70;4.63;;;;;;;12.45;55.46;100123.59;5014445;28;20024;-70
2022/10/08 00:11:13;;;;;;;9.95;6.35;;;;;;;12.41;55.15;100108.56;5014405;28;20018;-70
2022/10/08 00:13:40;;;;;;;12.63;5.20;;;;;;;12.56;54.83;100117.63;5013485;28;20022;-70
2022/10/08 00:16:22;;;;;;;10.60;5.50;;;;;;;12.70;54.19;100111.81;5012522;28;20029;-70
2022/10/08 00:18:50;;;;;;;10.07;6.13;;;;;;;12.70;54.00;100109.84;5013608;28;20026;-70
2022/10/08 00:21:19;;;;;;;9.35;6.45;;;;;;;12.48;54.90;100099.63;5012936;28;20029;-71
2022/10/08 00:23:46;;;;;;;15.90;7.10;;;;;;;12.59;54.53;100100.94;5014180;28;20057;-70
2022/10/08 00:26:13;;;;;;;15.65;7.22;;;;;;;12.64;54.34;100099.94;5011435;28;20022;-70
2022/10/08 00:28:42;;;;;;;14.32;7.80;;;;;;;12.72;53.97;100098.25;5012453;28;20072;-70
2022/10/08 00:31:14;;;;;;;16.65;7.88;;;;;;;12.78;53.91;100096.94;5014095;28;20038;-70
2022/10/08 00:33:39;;;;;;;11.57;7.25;;;;;;;12.26;55.57;100090.28;5012680;28;20026;-71
2022/10/08 00:36:08;;;;;;;15.50;7.55;;;;;;;12.45;54.74;100095.53;5012632;28;20342;-70
2022/10/08 00:38:34;;;;;;;14.25;7.40;;;;;;;12.30;55.36;100082.00;5011581;28;20412;-70
2022/10/08 00:40:59;;;;;;;13.48;6.95;;;;;;;12.28;55.72;100084.31;5012386;28;20029;-70
2022/10/08 00:43:39;;;;;;;19.73;8.32;;;;;;;12.25;55.68;100085.00;5012987;28;20026;-70
2022/10/08 00:46:15;;;;;;;7.78;5.75;;;;;;;11.70;57.24;100076.88;5012376;28;20092;-70
2022/10/08 00:48:40;;;;;;;10.00;5.90;;;;;;;11.75;57.39;100084.31;5013908;28;20032;-70
2022/10/08 00:51:06;;;;;;;13.43;6.85;;;;;;;11.74;57.73;100074.25;5012893;28;20018;-70
2022/10/08 00:53:33;;;;;;;31.65;15.90;;;;;;;11.46;58.16;100080.94;5013596;28;20072;-70
2022/10/08 00:55:58;;;;;;;34.35;15.07;;;;;;;11.14;59.32;100082.19;5012903;28;20420;-70
2022/10/08 00:58:25;;;;;;;29.67;12.70;;;;;;;10.82;60.57;100082.22;5011132;28;20088;-69
2022/10/08 01:00:52;;;;;;;20.65;10.13;;;;;;;10.82;60.59;100074.63;5012048;28;20500;-70
2022/10/08 01:03:17;;;;;;;21.73;11.13;;;;;;;10.61;61.88;100076.31;5012870;28;20525;-70
2022/10/08 01:06:10;;;;;;;23.25;10.15;;;;;;;11.15;60.03;100067.03;5013281;28;20214;-70
2022/10/08 01:08:46;;;;;;;25.20;9.98;;;;;;;11.39;59.23;100066.59;5011089;28;20117;-70
2022/10/08 01:11:43;;;;;;;36.58;12.15;;;;;;;11.52;58.65;100059.22;5013371;28;20026;-70
2022/10/08 01:14:15;;;;;;;34.30;15.07;;;;;;;11.24;59.42;100053.91;5011561;28;20087;-70
2022/10/08 01:17:01;;;;;;;42.60;16.08;;;;;;;11.28;59.37;100059.63;5013495;28;20362;-70
2022/10/08 01:19:40;;;;;;;35.40;14.60;;;;;;;11.28;59.06;100062.44;5011804;28;20026;-70
2022/10/08 01:22:50;;;;;;;27.60;10.43;;;;;;;10.87;60.77;100056.06;5011940;28;20026;-70
2022/10/08 01:25:45;;;;;;;19.60;9.23;;;;;;;10.79;60.95;100055.69;5010729;28;20092;-70
2022/10/08 01:28:22;;;;;;;11.52;6.47;;;;;;;10.49;61.46;100062.94;5012709;28;20046;-70
2022/10/08 01:30:55;;;;;;;13.18;6.03;;;;;;;10.33;61.79;100068.06;5011520;28;20084;-70
2022/10/08 01:33:31;;;;;;;17.27;8.45;;;;;;;10.12;63.13;100063.00;5011646;28;20026;-70
2022/10/08 01:35:59;;;;;;;33.47;14.57;;;;;;;9.75;64.23;100068.63;5011341;28;20068;-70
2022/10/08 01:38:30;;;;;;;29.27;13.45;;;;;;;9.80;64.74;100054.53;5012133;28;20472;-70
2022/10/08 01:40:59;;;;;;;26.45;13.50;;;;;;;10.10;63.41;100057.75;5012530;28;20507;-70
2022/10/08 01:43:30;;;;;;;20.02;9.23;;;;;;;9.87;64.71;100061.66;5011939;28;20469;-70
2022/10/08 01:46:01;;;;;;;16.83;6.68;;;;;;;9.73;64.76;100053.31;5011270;28;20132;-70
2022/10/08 01:48:30;;;;;;;10.40;6.55;;;;;;;9.33;66.36;100049.16;5011390;28;20160;-70
2022/10/08 01:51:07;;;;;;;16.08;6.18;;;;;;;9.54;65.59;100045.94;5011850;28;20113;-70
2022/10/08 01:53:40;;;;;;;8.05;5.05;;;;;;;9.76;64.17;100058.25;5012497;28;20168;-70
2022/10/08 01:56:10;;;;;;;19.83;5.78;;;;;;;9.67;64.24;100047.84;5011107;28;20029;-70
2022/10/08 01:59:01;;;;;;;8.35;4.80;;;;;;;9.67;65.35;100053.44;5010852;28;20117;-70
2022/10/08 02:01:48;;;;;;;7.43;6.07;;;;;;;9.89;63.71;100048.19;4992731;28;20157;-70
2022/10/08 02:04:33;;;;;;;7.70;5.57;;;;;;;10.06;63.62;100051.13;5011228;28;20088;-70
2022/10/08 02:07:10;;;;;;;7.68;5.00;;;;;;;10.39;62.77;100053.66;5010407;28;20393;-70
2022/10/08 02:09:43;;;;;;;9.40;5.65;;;;;;;10.55;61.79;100058.84;5012067;28;20030;-70
2022/10/08 02:12:09;;;;;;;10.20;6.32;;;;;;;10.60;61.43;100064.34;5009255;28;20105;-70
2022/10/08 02:14:39;;;;;;;9.25;6.00;;;;;;;10.61;61.31;100059.53;5008454;28;20053;-70
2022/10/08 02:17:08;;;;;;;13.70;5.67;;;;;;;10.80;60.91;100065.75;5009524;28;20493;-70
2022/10/08 02:19:45;;;;;;;9.25;5.68;;;;;;;10.41;61.72;100058.97;5010158;28;20578;-70
2022/10/08 02:22:16;;;;;;;9.45;5.30;;;;;;;10.34;62.51;100061.34;5011462;28;20029;-70
2022/10/08 02:24:49;;;;;;;11.43;4.97;;;;;;;10.06;63.86;100062.28;5030397;28;20487;-70
2022/10/08 02:27:21;;;;;;;16.90;5.68;;;;;;;10.00;63.55;100062.72;5011607;28;20018;-69
2022/10/08 02:30:01;;;;;;;12.55;5.53;;;;;;;10.07;63.71;100060.34;4990662;28;20026;-71
2022/10/08 02:32:31;;;;;;;;;;;;;;;9.85;63.70;100061.97;4992379;28;20097;-70
2022/10/08 02:35:13;;;;;;;11.60;5.55;;;;;;;9.90;64.23;100056.28;4991878;28;19945;-70
2022/10/08 02:37:51;;;;;;;23.13;11.95;;;;;;;9.95;64.00;100066.47;4991809;28;20057;-70
2022/10/08 02:40:19;;;;;;;85.32;30.63;;;;;;;10.05;63.02;100059.84;4991802;28;20034;-70
2022/10/08 02:42:51;;;;;;;54.70;23.58;;;;;;;9.77;64.52;100062.72;4999623;28;20033;-70
2022/10/08 02:45:25;;;;;;;44.78;22.40;;;;;;;9.74;64.65;100055.81;5011283;28;20542;-70
2022/10/08 02:47:57;;;;;;;44.45;20.48;;;;;;;9.50;66.16;100056.06;5010073;28;20200;-70
2022/10/08 02:50:26;;;;;;;31.08;14.57;;;;;;;9.44;65.83;100051.75;5010361;28;20083;-70
2022/10/08 02:52:52;;;;;;;18.48;10.40;;;;;;;9.36;66.31;100056.09;5011278;28;20034;-70
2022/10/08 02:55:40;;;;;;;21.08;10.85;;;;;;;9.34;66.20;100053.63;5009274;28;20128;-70
2022/10/08 02:58:09;;;;;;;19.08;9.93;;;;;;;9.30;66.20;100055.38;5009954;28;20061;-70
2022/10/08 03:00:53;;;;;;;30.15;13.32;;;;;;;9.26;66.45;100052.38;5010163;28;20041;-70
2022/10/08 03:03:30;;;;;;;68.25;28.00;;;;;;;9.38;65.04;100048.25;5010655;28;20492;-70
2022/10/08 03:05:57;;;;;;;30.80;14.50;;;;;;;9.07;66.37;100048.88;5009761;28;20412;-70
2022/10/08 03:08:22;;;;;;;28.48;13.32;;;;;;;9.03;66.43;100036.69;5009800;28;20033;-70
2022/10/08 03:10:48;;;;;;;30.52;12.05;;;;;;;9.30;64.87;100051.75;5007996;28;20025;-70
2022/10/08 03:13:15;;;;;;;24.75;10.75;;;;;;;9.18;65.95;100055.09;5011010;28;20110;-70
2022/10/08 03:15:43;;;;;;;19.02;9.70;;;;;;;9.49;64.35;100057.19;5010677;28;20058;-70
2022/10/08 03:18:11;;;;;;;15.15;8.10;;;;;;;9.36;64.27;100062.50;5011068;28;20104;-70
2022/10/08 03:20:44;;;;;;;15.93;8.88;;;;;;;9.72;63.42;100048.88;5010929;28;20080;-70
2022/10/08 03:23:11;;;;;;;21.88;9.40;;;;;;;9.68;62.53;100055.09;5010141;28;20108;-70
2022/10/08 03:25:36;;;;;;;22.17;10.40;;;;;;;9.36;63.42;100054.13;5010160;28;20501;-70
2022/10/08 03:28:02;;;;;;;26.95;10.02;;;;;;;9.27;63.84;100051.25;5010983;28;20425;-70
2022/10/08 03:30:27;;;;;;;12.20;7.22;;;;;;;9.26;64.49;100048.75;5011326;28;20520;-70
2022/10/08 03:32:53;;;;;;;23.58;10.00;;;;;;;9.22;64.33;100056.09;5014507;28;20029;-70
2022/10/08 03:35:18;;;;;;;23.38;11.45;;;;;;;8.76;66.90;100055.91;5013673;28;20030;-70
2022/10/08 03:37:43;;;;;;;23.55;11.00;;;;;;;9.00;66.56;100049.28;5014402;28;20030;-70
2022/10/08 03:40:10;;;;;;;32.25;14.75;;;;;;;9.19;65.61;100049.19;5012874;28;20050;-70
2022/10/08 03:42:35;;;;;;;31.48;14.45;;;;;;;9.08;66.53;100056.09;5014279;28;20038;-70
2022/10/08 03:45:01;;;;;;;20.58;10.18;;;;;;;9.23;65.67;100046.59;5012958;28;20112;-70
2022/10/08 03:47:26;;;;;;;13.38;8.55;;;;;;;8.82;67.92;100049.09;5012738;28;20045;-70
2022/10/08 03:49:51;;;;;;;12.45;7.60;;;;;;;9.01;66.87;100050.94;5016737;28;20109;-69
2022/10/08 03:52:17;;;;;;;22.88;8.25;;;;;;;9.30;65.41;100052.59;5012714;28;20026;-70
2022/10/08 03:54:42;;;;;;;12.25;7.38;;;;;;;9.51;64.44;100046.53;5007190;28;20038;-70
2022/10/08 03:57:08;;;;;;;20.10;7.18;;;;;;;9.65;64.14;100052.94;5014070;28;20025;-70
2022/10/08 03:59:33;;;;;;;21.85;10.32;;;;;;;9.50;64.38;100054.09;5014229;28;20034;-70
2022/10/08 04:01:59;;;;;;;16.55;9.52;;;;;;;9.46;64.64;100044.69;5011672;28;20030;-69
2022/10/08 04:04:24;;;;;;;19.63;10.70;;;;;;;9.52;64.47;100051.81;5014086;28;20036;-71
2022/10/08 04:06:50;;;;;;;26.33;14.05;;;;;;;9.38;65.11;100049.03;5012669;28;20026;-70
2022/10/08 04:09:15;;;;;;;25.92;14.38;;;;;;;9.36;65.67;100045.75;5011938;28;20026;-70
2022/10/08 04:11:41;;;;;;;25.38;12.32;;;;;;;9.46;65.81;100046.66;5013161;28;20026;-70
2022/10/08 04:14:06;;;;;;;20.98;11.98;;;;;;;9.47;66.02;100045.53;5011576;28;20028;-70
2022/10/08 04:16:32;;;;;;;30.17;12.13;;;;;;;9.17;66.45;100045.88;5013999;28;20403;-69
2022/10/08 04:18:57;;;;;;;22.55;12.20;;;;;;;9.28;66.02;100049.25;5012372;28;20033;-69
2022/10/08 04:21:22;;;;;;;42.78;17.65;;;;;;;9.25;66.53;100044.31;5013731;28;20432;-71
2022/10/08 04:23:49;;;;;;;43.92;19.30;;;;;;;9.11;67.13;100047.94;5009057;28;20461;-69
2022/10/08 04:26:14;;;;;;;34.28;14.20;;;;;;;8.92;67.39;100047.22;4995581;28;20049;-69
2022/10/08 04:28:43;;;;;;;20.02;9.43;;;;;;;9.15;66.16;100045.38;5005416;28;20481;-69
2022/10/08 04:31:17;;;;;;;17.27;7.07;;;;;;;9.19;65.57;100040.81;5023751;28;20116;-69
2022/10/08 04:33:44;;;;;;;17.83;7.38;;;;;;;9.47;64.25;100049.16;5013208;28;20030;-69
2022/10/08 04:36:12;;;;;;;11.32;6.88;;;;;;;9.64;64.08;100042.06;4994849;28;20071;-69
2022/10/08 04:38:38;;;;;;;14.57;7.60;;;;;;;9.61;63.18;100043.50;4994854;28;20030;-69
2022/10/08 04:41:06;;;;;;;13.45;6.82;;;;;;;9.58;63.85;100035.78;5011951;28;20554;-69
2022/10/08 04:43:32;;;;;;;23.10;8.30;;;;;;;9.46;63.71;100033.50;5013780;28;20026;-69
2022/10/08 04:45:58;;;;;;;24.90;7.57;;;;;;;9.52;64.36;100028.63;5011464;28;20081;-69
2022/10/08 04:48:23;;;;;;;15.35;8.90;;;;;;;9.49;63.97;100034.84;5008961;28;20068;-69
2022/10/08 04:50:57;;;;;;;21.15;9.60;;;;;;;9.35;65.62;100032.09;5011753;28;20024;-69
2022/10/08 04:53:24;;;;;;;17.60;9.70;;;;;;;9.22;65.40;100022.63;5011694;28;20407;-69
2022/10/08 04:55:50;;;;;;;28.23;12.20;;;;;;;9.00;65.35;100032.56;5008498;28;20032;-68
2022/10/08 04:58:16;;;;;;;22.15;12.05;;;;;;;8.94;65.83;100028.22;5004670;28;20512;-69
2022/10/08 05:00:42;;;;;;;32.42;15.15;;;;;;;8.77;66.57;100035.22;5010799;28;20025;-71
2022/10/08 05:03:07;;;;;;;60.47;14.50;;;;;;;8.82;66.57;100035.16;5012695;28;20037;-71
2022/10/08 05:05:32;;;;;;;33.20;15.63;;;;;;;8.77;66.79;100040.00;5012184;28;20025;-71
2022/10/08 05:07:58;;;;;;;30.40;11.90;;;;;;;8.48;67.84;100030.75;5011393;28;20030;-70
2022/10/08 05:10:23;;;;;;;19.52;9.10;;;;;;;8.31;68.96;100036.06;5009488;28;20037;-70
2022/10/08 05:12:49;;;;;;;16.33;8.10;;;;;;;8.43;68.89;100041.97;5010934;28;20084;-70
2022/10/08 05:15:15;;;;;;;20.67;8.30;;;;;;;8.55;68.26;100038.72;5012458;28;20032;-69
2022/10/08 05:17:40;;;;;;;23.80;8.27;;;;;;;8.71;67.39;100042.88;4996149;28;20460;-69
2022/10/08 05:20:06;;;;;;;13.85;7.28;;;;;;;8.98;66.80;100046.00;5020974;28;20033;-70
2022/10/08 05:22:31;;;;;;;11.23;7.32;;;;;;;9.22;66.39;100042.16;5009426;28;20087;-70
2022/10/08 05:24:57;;;;;;;13.35;6.80;;;;;;;9.13;66.40;100047.66;5012301;28;20057;-71
2022/10/08 05:27:22;;;;;;;10.82;7.30;;;;;;;9.32;66.22;100050.31;5011657;28;20048;-70
2022/10/08 05:29:47;;;;;;;19.83;8.73;;;;;;;9.59;66.40;100051.38;5011699;28;20412;-70
2022/10/08 05:32:13;;;;;;;22.02;10.00;;;;;;;9.56;66.20;100052.03;5011866;28;20448;-70
2022/10/08 05:34:38;;;;;;;26.40;11.25;;;;;;;9.49;67.21;100043.25;5004589;28;20025;-71
2022/10/08 05:37:04;;;;;;;20.23;10.23;;;;;;;9.62;66.71;100050.75;5012440;28;20026;-71
2022/10/08 05:39:29;;;;;;;17.70;9.40;;;;;;;9.54;67.61;100049.53;5010778;28;20066;-72
2022/10/08 05:41:55;;;;;;;22.52;8.50;;;;;;;9.72;66.91;100054.47;5011080;28;20104;-69
2022/10/08 05:44:20;;;;;;;20.38;8.50;;;;;;;9.93;66.21;100054.78;5010268;28;20045;-70
2022/10/08 05:46:46;;;;;;;11.10;7.00;;;;;;;10.22;66.11;100059.94;5009405;28;20022;-70
2022/10/08 05:49:18;;;;;;;15.18;7.53;;;;;;;10.30;65.47;100057.53;5008961;28;20052;-73
2022/10/08 05:51:43;;;;;;;12.15;6.03;;;;;;;10.37;65.22;100053.16;5009176;28;20486;-73
2022/10/08 05:54:09;;;;;;;15.07;6.75;;;;;;;10.61;64.82;100059.53;5006977;28;20021;-71
2022/10/08 05:56:34;;;;;;;14.98;6.90;;;;;;;10.80;63.85;100054.56;5009468;28;20030;-71
2022/10/08 05:59:00;;;;;;;9.65;6.20;;;;;;;10.80;63.23;100059.34;5010939;28;20033;-70
2022/10/08 06:01:28;;;;;;;13.30;6.05;;;;;;;10.87;63.39;100051.28;5011857;28;20029;-70
2022/10/08 06:03:56;;;;;;;12.02;6.45;;;;;;;10.95;62.84;100058.91;5009799;28;20034;-70
2022/10/08 06:06:22;;;;;;;12.25;7.45;;;;;;;11.04;62.83;100058.09;5022691;28;20080;-70
2022/10/08 06:08:57;;;;;;;10.63;6.53;;;;;;;11.20;62.64;100062.13;5024988;28;20598;-71
2022/10/08 06:11:23;;;;;;;14.38;7.93;;;;;;;11.38;62.05;100060.19;5009415;28;20026;-70
2022/10/08 06:13:55;;;;;;;14.93;7.95;;;;;;;11.59;61.12;100059.56;4999546;28;20025;-70
2022/10/08 06:16:21;;;;;;;11.68;7.75;;;;;;;11.85;60.78;100066.34;4995928;28;20018;-70
2022/10/08 06:18:46;;;;;;;21.52;9.23;;;;;;;11.98;60.03;100070.13;5007778;28;20040;-72
2022/10/08 06:21:15;;;;;;;21.80;8.45;;;;;;;12.19;59.85;100065.53;5002439;28;20399;-72
2022/10/08 06:23:49;;;;;;;12.60;8.07;;;;;;;12.43;59.01;100061.38;4998939;28;20404;-72
2022/10/08 06:26:17;;;;;;;17.45;8.63;;;;;;;12.67;58.28;100061.97;5010235;28;20045;-72
2022/10/08 06:28:43;;;;;;;13.10;6.22;;;;;;;12.83;56.98;100063.06;5009733;28;20030;-71
2022/10/08 06:31:09;;;;;;;15.50;7.07;;;;;;;12.93;56.02;100053.47;5006372;28;20503;-71
2022/10/08 06:33:35;;;;;;;9.95;7.15;;;;;;;13.09;55.36;100058.50;5009877;28;20034;-71
2022/10/08 06:36:27;;;;;;;14.15;7.57;;;;;;;13.22;54.51;100057.44;4997929;28;20176;-71
2022/10/08 06:38:55;;;;;;;13.30;7.28;;;;;;;12.93;55.44;100059.09;5006403;28;20512;-71
2022/10/08 06:41:22;;;;;;;14.30;8.23;;;;;;;13.04;55.92;100059.50;5003970;28;20061;-71
2022/10/08 06:43:48;;;;;;;14.15;7.45;;;;;;;13.56;54.34;100050.00;5006813;28;20405;-71
2022/10/08 06:46:13;;;;;;;12.77;7.85;;;;;;;13.80;53.60;100048.50;5008163;28;20045;-73
2022/10/08 06:48:39;;;;;;;15.32;7.60;;;;;;;13.81;53.11;100052.97;5010109;28;20100;-73
2022/10/08 06:51:13;;;;;;;14.02;7.63;;;;;;;14.02;52.92;100052.13;5011356;28;20033;-73
2022/10/08 06:53:40;;;;;;;13.95;7.57;;;;;;;14.13;52.57;100052.53;5006531;28;20037;-73
2022/10/08 06:56:09;;;;;;;13.80;6.97;;;;;;;14.11;52.61;100052.84;5010291;28;20451;-72
2022/10/08 06:58:38;;;;;;;15.45;8.05;;;;;;;14.16;52.40;100044.22;5009366;28;20038;-73
2022/10/08 07:01:27;;;;;;;16.92;8.60;;;;;;;14.30;52.12;100057.16;5009033;28;20038;-71
2022/10/08 07:03:56;;;;;;;18.67;8.13;;;;;;;14.39;51.91;100049.47;5011227;28;20037;-70
2022/10/08 07:06:23;;;;;;;14.52;7.50;;;;;;;14.31;51.97;100048.38;5019360;28;20022;-71
2022/10/08 07:08:59;;;;;;;17.17;8.32;;;;;;;14.82;50.85;100050.19;5013750;28;20044;-69
2022/10/08 07:11:25;;;;;;;14.05;8.02;;;;;;;15.05;50.78;100046.09;5007629;28;20033;-69
2022/10/08 07:13:53;;;;;;;15.52;8.52;;;;;;;15.25;49.88;100045.16;5022705;28;20113;-70
2022/10/08 07:16:21;;;;;;;17.00;8.02;;;;;;;15.56;49.86;100048.53;5012633;28;20393;-69
2022/10/08 07:18:49;;;;;;;16.60;8.38;;;;;;;15.93;48.51;100039.19;5014951;28;20025;-70
2022/10/08 07:21:16;;;;;;;17.13;8.23;;;;;;;16.31;47.73;100034.19;5011665;28;20042;-70
2022/10/08 07:23:42;;;;;;;14.02;8.13;;;;;;;16.35;47.40;100035.09;5013177;28;20580;-71
2022/10/08 07:26:12;;;;;;;14.68;7.18;;;;;;;16.21;47.60;100030.72;5009394;28;20037;-70
2022/10/08 07:28:40;;;;;;;11.60;6.47;;;;;;;16.48;47.42;100033.06;5012853;28;20036;-70
2022/10/08 07:31:11;;;;;;;12.02;5.38;;;;;;;16.79;46.56;100023.78;5009880;28;20025;-69
2022/10/08 07:33:39;;;;;;;8.93;4.60;;;;;;;17.10;46.35;100027.00;5010901;28;20040;-69
2022/10/08 07:36:15;;;;;;;11.85;6.70;;;;;;;17.01;45.85;100029.19;5012923;28;20034;-69
2022/10/08 07:38:41;;;;;;;8.70;4.47;;;;;;;17.45;45.24;100020.56;5011930;28;20029;-70
2022/10/08 07:41:08;;;;;;;10.50;5.30;;;;;;;17.73;44.58;100018.75;5011997;28;20413;-70
2022/10/08 07:43:34;;;;;;;15.70;6.43;;;;;;;17.89;43.29;100015.84;5016365;28;20394;-70
2022/10/08 07:46:00;;;;;;;13.73;6.85;;;;;;;17.95;42.92;100011.53;5010444;28;20062;-71
2022/10/08 07:48:28;;;;;;;47.10;17.50;;;;;;;17.99;42.38;100009.59;5013976;28;20120;-70
2022/10/08 07:50:53;;;;;;;26.20;11.50;;;;;;;18.27;41.98;100008.56;5013786;28;20044;-70
2022/10/08 07:53:19;;;;;;;10.13;4.93;;;;;;;18.34;41.50;100010.72;5012659;28;20025;-69
2022/10/08 07:55:44;;;;;;;9.88;4.80;;;;;;;18.70;41.14;100011.38;5013273;28;20171;-70
2022/10/08 07:58:10;;;;;;;9.02;4.00;;;;;;;18.75;40.71;100010.25;5011919;28;20040;-70
2022/10/08 08:00:40;;;;;;;8.02;4.38;;;;;;;18.72;40.31;100016.69;5008888;28;20041;-71
2022/10/08 08:03:13;;;;;;;11.15;5.05;;;;;;;18.87;40.65;100014.88;5012582;28;20034;-70
2022/10/08 08:05:38;;;;;;;7.80;4.70;;;;;;;18.93;40.46;100000.00;5012754;28;20439;-70
2022/10/08 08:08:04;;;;;;;5.75;3.85;;;;;;;19.21;39.95;100006.56;5010866;28;20037;-70
2022/10/08 08:10:29;;;;;;;7.90;4.45;;;;;;;19.19;39.94;99994.78;5010888;28;20413;-71
2022/10/08 08:12:55;;;;;;;7.60;4.57;;;;;;;19.43;39.16;99998.38;4998340;28;20038;-75
2022/10/08 08:15:20;;;;;;;8.38;4.72;;;;;;;19.28;39.49;100000.19;5008695;28;20064;-74
2022/10/08 08:17:46;;;;;;;10.90;4.28;;;;;;;18.90;39.02;99994.31;5004096;28;20531;-71
2022/10/08 08:20:11;;;;;;;7.05;5.22;;;;;;;18.77;39.63;99990.84;5005294;28;20030;-70
2022/10/08 08:22:36;;;;;;;7.72;4.55;;;;;;;19.28;39.90;99986.84;4996947;28;20030;-72
2022/10/08 08:25:02;;;;;;;11.02;5.20;;;;;;;19.38;38.75;99988.19;5005443;28;20034;-73
2022/10/08 08:27:29;;;;;;;9.05;5.07;;;;;;;19.24;39.50;99991.63;5009974;28;20026;-72
2022/10/08 08:29:54;;;;;;;8.90;4.93;;;;;;;19.14;39.38;99984.59;5013635;28;20417;-73
2022/10/08 08:32:20;;;;;;;6.05;4.82;;;;;;;19.44;38.91;99978.16;5008271;28;20030;-73
2022/10/08 08:34:45;;;;;;;12.07;5.30;;;;;;;19.81;38.20;99978.63;5011298;28;20037;-73
2022/10/08 08:37:11;;;;;;;9.85;5.35;;;;;;;19.84;37.85;99975.00;5005215;28;20045;-73
2022/10/08 08:39:36;;;;;;;10.80;5.30;;;;;;;19.39;38.72;99984.16;4995382;28;20030;-73
2022/10/08 08:42:05;;;;;;;12.50;5.30;;;;;;;19.67;38.13;99965.91;5007212;28;20035;-72
2022/10/08 08:44:41;;;;;;;7.78;5.00;;;;;;;19.97;38.18;99965.06;5005618;28;20082;-74
2022/10/08 08:47:13;;;;;;;16.30;4.82;;;;;;;20.45;37.57;99972.06;5012045;28;20038;-73
2022/10/08 08:49:52;;;;;;;8.63;4.85;;;;;;;20.56;36.67;99972.16;5010027;28;20033;-73
2022/10/08 08:52:23;;;;;;;10.30;4.25;;;;;;;20.57;36.57;99963.25;5015527;28;20036;-71
2022/10/08 08:54:49;;;;;;;11.85;4.40;;;;;;;20.53;36.55;99959.56;5011554;28;20401;-74
2022/10/08 08:57:21;;;;;;;5.95;4.22;;;;;;;20.97;36.29;99957.09;5019507;28;20101;-74
2022/10/08 08:59:53;;;;;;;13.68;5.13;;;;;;;21.12;36.10;99953.19;5011844;28;20030;-74
2022/10/08 09:02:37;;;;;;;19.98;4.70;;;;;;;20.60;36.69;99956.78;5007046;28;20083;-74
2022/10/08 09:05:10;;;;;;;8.80;4.07;;;;;;;20.99;36.35;99958.34;5008924;28;20085;-74
2022/10/08 09:07:45;;;;;;;8.40;4.10;;;;;;;21.23;36.19;99958.91;4999426;28;20042;-73
2022/10/08 09:10:20;;;;;;;6.40;3.75;;;;;;;21.40;35.04;99951.72;5003810;28;20041;-70
2022/10/08 09:12:47;;;;;;;5.63;3.90;;;;;;;21.39;35.54;99952.94;5002062;28;20030;-70
2022/10/08 09:15:22;;;;;;;6.20;3.70;;;;;;;21.25;35.17;99950.81;5000771;28;20514;-72
2022/10/08 09:17:53;;;;;;;15.32;4.03;;;;;;;21.52;35.00;99946.91;5007649;28;20469;-73
2022/10/08 09:20:23;;;;;;;13.20;3.72;;;;;;;22.00;34.71;99937.34;5011925;28;20065;-72
2022/10/08 09:22:50;;;;;;;;;;;;;;;22.25;34.32;99937.41;5020637;28;20038;-71
2022/10/08 09:25:19;;;;;;;15.00;3.92;;;;;;;22.27;34.61;99931.31;5019102;28;19917;-71
2022/10/08 09:27:52;;;;;;;7.13;3.22;;;;;;;21.42;34.64;99917.19;5019424;28;20786;-70
2022/10/08 09:30:39;;;;;;;4.97;3.65;;;;;;;21.66;35.31;99918.53;5024017;28;20041;-69
2022/10/08 09:33:11;;;;;;;5.53;3.95;;;;;;;21.82;34.37;99917.34;5012952;28;20053;-71
2022/10/08 09:35:43;;;;;;;7.88;3.42;;;;;;;20.85;35.52;99915.59;5022359;28;20395;-72
2022/10/08 09:38:35;;;;;;;7.47;3.20;;;;;;;21.46;35.52;99912.31;5009833;28;20034;-71
2022/10/08 09:41:05;;;;;;;6.10;3.88;;;;;;;21.91;35.52;99908.47;5021282;28;20378;-68
2022/10/08 09:43:33;;;;;;;14.18;4.68;;;;;;;21.90;34.68;99909.66;5013184;28;20076;-71
2022/10/08 09:46:01;;;;;;;8.98;3.85;;;;;;;21.78;35.15;99911.66;5005931;28;20097;-69
2022/10/08 09:48:29;;;;;;;5.38;3.60;;;;;;;22.03;34.21;99902.38;5006828;28;20055;-70
2022/10/08 09:51:15;;;;;;;5.65;3.97;;;;;;;21.81;35.00;99895.81;5012225;28;20037;-69
2022/10/08 09:53:48;;;;;;;8.45;3.80;;;;;;;22.14;34.84;99896.69;5000374;28;20033;-70
2022/10/08 09:56:25;;;;;;;12.35;4.40;;;;;;;22.34;33.91;99890.63;5012159;28;20392;-72
2022/10/08 09:58:55;;;;;;;7.00;3.75;;;;;;;22.28;33.90;99888.16;5029630;28;20553;-71
2022/10/08 10:01:21;;;;;;;5.85;4.32;;;;;;;22.32;34.14;99882.47;5007350;28;20037;-69
2022/10/08 10:03:53;;;;;;;8.25;4.05;;;;;;;22.41;33.60;99880.03;4999563;28;20469;-71
2022/10/08 10:06:33;;;;;;;8.30;4.05;;;;;;;22.76;33.54;99876.81;5012567;28;20100;-71
2022/10/08 10:08:59;;;;;;;;;;;;;;;22.76;32.88;99874.75;5014557;28;20076;-74
2022/10/08 10:11:33;;;;;;;8.20;3.50;;;;;;;22.96;33.34;99865.78;5005092;28;19971;-74
2022/10/08 10:14:12;;;;;;;10.43;4.53;;;;;;;22.98;32.70;99857.63;5009356;28;20120;-74
2022/10/08 10:16:42;;;;;;;8.95;4.18;;;;;;;22.70;33.42;99857.25;5007994;28;20472;-72
2022/10/08 10:19:27;;;;;;;6.78;3.97;;;;;;;22.51;33.26;99861.34;5000840;28;20037;-72
2022/10/08 10:22:08;;;;;;;4.00;3.40;;;;;;;22.56;32.60;99843.84;4999027;28;20033;-73
2022/10/08 10:25:03;;;;;;;7.32;3.65;;;;;;;22.81;32.08;99847.88;5013402;28;20025;-73
2022/10/08 10:27:41;;;;;;;10.25;4.18;;;;;;;22.99;32.45;99836.41;5010823;28;20056;-73
2022/10/08 10:30:21;;;;;;;9.98;4.60;;;;;;;23.00;32.70;99838.03;5007488;28;20030;-74
2022/10/08 10:33:04;;;;;;;5.85;3.97;;;;;;;22.97;32.65;99833.16;5020563;28;20022;-76
2022/10/08 10:35:31;;;;;;;10.23;4.13;;;;;;;22.78;32.90;99834.44;5017698;28;20545;-73
2022/10/08 10:38:08;;;;;;;9.25;5.00;;;;;;;23.12;32.05;99834.75;5012486;28;20033;-73
2022/10/08 10:41:02;;;;;;;14.93;4.53;;;;;;;23.34;31.88;99825.31;4998368;28;20038;-74
2022/10/08 10:43:35;;;;;;;11.63;3.65;;;;;;;23.64;31.65;99813.34;4989400;28;20054;-73
2022/10/08 10:46:17;;;;;;;6.45;3.40;;;;;;;23.62;31.74;99809.28;5005154;28;20116;-72
2022/10/08 10:48:43;;;;;;;5.75;3.75;;;;;;;23.34;31.57;99803.31;5015229;28;20112;-72
2022/10/08 10:51:33;;;;;;;16.63;4.38;;;;;;;23.49;32.15;99806.91;5006333;28;20121;-74
2022/10/08 10:54:12;;;;;;;;;;;;;;;23.54;31.85;99803.59;5012432;28;20037;-75
2022/10/08 10:56:46;;;;;;;5.40;3.22;;;;;;;22.29;33.35;99795.78;5019977;28;19944;-77
2022/10/08 10:59:43;;;;;;;4.70;3.67;;;;;;;23.12;33.04;99791.16;5017281;28;20069;-73
2022/10/08 11:02:21;;;;;;;9.88;3.90;;;;;;;23.32;32.19;99780.09;5007208;28;20088;-74
2022/10/08 11:05:04;;;;;;;6.13;3.55;;;;;;;23.52;31.69;99777.53;5017228;28;20496;-74
2022/10/08 11:08:02;;;;;;;12.35;4.10;;;;;;;23.60;31.56;99777.50;5012484;28;20025;-76
2022/10/08 11:10:31;;;;;;;10.00;4.22;;;;;;;23.72;31.18;99777.00;5009492;28;20066;-74
2022/10/08 11:13:05;;;;;;;15.93;4.35;;;;;;;23.78;30.55;99781.03;5010617;28;20032;-74
2022/10/08 11:15:42;;;;;;;14.60;4.05;;;;;;;23.70;30.52;99777.41;5003315;28;20497;-74
2022/10/08 11:18:48;;;;;;;9.25;3.58;;;;;;;24.06;30.47;99781.28;5012111;28;20534;-74
2022/10/08 11:21:34;;;;;;;10.48;4.28;;;;;;;24.40;29.86;99769.13;5010023;28;20042;-73
2022/10/08 11:24:22;;;;;;;6.35;3.47;;;;;;;24.00;29.79;99758.03;5002524;28;20026;-74
2022/10/08 11:27:10;;;;;;;10.73;3.72;;;;;;;24.02;30.36;99758.41;4993515;28;20111;-74
2022/10/08 11:29:41;;;;;;;9.40;3.75;;;;;;;23.94;29.94;99740.53;5001379;28;20034;-73
2022/10/08 11:32:13;;;;;;;4.07;3.20;;;;;;;24.04;30.51;99733.13;5017056;28;20088;-74
2022/10/08 11:34:47;;;;;;;4.63;4.10;;;;;;;24.33;29.86;99743.47;5023055;28;20021;-74
2022/10/08 11:37:54;;;;;;;7.75;3.38;;;;;;;24.39;29.25;99730.34;5014233;28;20017;-73
2022/10/08 11:40:54;;;;;;;6.50;2.95;;;;;;;24.39;28.75;99716.88;5026638;28;20025;-74
2022/10/08 11:43:26;;;;;;;4.40;2.80;;;;;;;24.41;28.83;99716.44;5019216;28;20044;-73